sensor_id;sensor_type;location;lat;lon;timestamp;P1;durP1;ratioP1;P2;durP2;ratioP2
47960;SDS011;33721;48.852;9.936;2023-07-29T00:01:26;4.85;;;2.83;;
47960;SDS011;33721;48.852;9.936;2023-07-29T00:03:52;6.95;;;3.10;;
47960;SDS011;33721;48.852;9.936;2023-07-29T00:06:18;5.60;;;2.97;;
47960;SDS011;33721;48.852;9.936;2023-07-29T00:08:43;11.98;;;3.72;;
47960;SDS011;33721;48.852;9.936;2023-07-29T00:11:09;7.70;;;3.70;;
47960;SDS011;33721;48.852;9.936;2023-07-29T00:13:34;7.47;;;4.38;;
47960;SDS011;33721;48.852;9.936;2023-07-29T00:16:00;5.70;;;3.33;;
47960;SDS011;33721;48.852;9.936;2023-07-29T00:18:26;5.55;;;3.60;;
47960;SDS011;33721;48.852;9.936;2023-07-29T00:20:52;6.07;;;3.70;;
47960;SDS011;33721;48.852;9.936;2023-07-29T00:23:18;6.60;;;3.70;;
47960;SDS011;33721;48.852;9.936;2023-07-29T00:25:44;7.15;;;4.10;;
47960;SDS011;33721;48.852;9.936;2023-07-29T00:28:11;6.70;;;3.55;;
47960;SDS011;33721;48.852;9.936;2023-07-29T00:30:37;5.88;;;3.20;;
47960;SDS011;33721;48.852;9.936;2023-07-29T00:33:03;4.80;;;3.20;;
47960;SDS011;33721;48.852;9.936;2023-07-29T00:35:28;9.75;;;3.17;;
47960;SDS011;33721;48.852;9.936;2023-07-29T00:37:54;6.13;;;3.20;;
47960;SDS011;33721;48.852;9.936;2023-07-29T00:40:21;6.50;;;3.10;;
47960;SDS011;33721;48.852;9.936;2023-07-29T00:42:47;5.72;;;3.40;;
47960;SDS011;33721;48.852;9.936;2023-07-29T00:45:14;3.75;;;2.60;;
47960;SDS011;33721;48.852;9.936;2023-07-29T00:47:39;4.53;;;2.85;;
47960;SDS011;33721;48.852;9.936;2023-07-29T00:50:06;5.57;;;2.63;;
47960;SDS011;33721;48.852;9.936;2023-07-29T00:52:33;4.55;;;3.03;;
47960;SDS011;33721;48.852;9.936;2023-07-29T00:54:59;5.82;;;3.13;;
47960;SDS011;33721;48.852;9.936;2023-07-29T00:57:24;4.82;;;3.10;;
47960;SDS011;33721;48.852;9.936;2023-07-29T00:59:51;5.43;;;2.60;;
47960;SDS011;33721;48.852;9.936;2023-07-29T01:02:17;3.83;;;2.42;;
47960;SDS011;33721;48.852;9.936;2023-07-29T01:04:43;5.47;;;2.88;;
47960;SDS011;33721;48.852;9.936;2023-07-29T01:07:19;7.40;;;3.00;;
47960;SDS011;33721;48.852;9.936;2023-07-29T01:15:48;4.85;;;2.92;;
47960;SDS011;33721;48.852;9.936;2023-07-29T01:20:53;5.20;;;3.20;;
47960;SDS011;33721;48.852;9.936;2023-07-29T01:23:25;5.13;;;2.80;;
47960;SDS011;33721;48.852;9.936;2023-07-29T01:25:57;6.68;;;3.22;;
47960;SDS011;33721;48.852;9.936;2023-07-29T01:28:22;7.38;;;2.47;;
47960;SDS011;33721;48.852;9.936;2023-07-29T01:30:49;5.53;;;3.10;;
47960;SDS011;33721;48.852;9.936;2023-07-29T01:33:25;7.00;;;3.47;;
47960;SDS011;33721;48.852;9.936;2023-07-29T01:36:01;5.95;;;3.58;;
47960;SDS011;33721;48.852;9.936;2023-07-29T01:38:29;7.43;;;3.50;;
47960;SDS011;33721;48.852;9.936;2023-07-29T01:41:02;10.88;;;3.33;;
47960;SDS011;33721;48.852;9.936;2023-07-29T01:43:31;4.00;;;2.70;;
47960;SDS011;33721;48.852;9.936;2023-07-29T01:45:57;3.60;;;2.35;;
47960;SDS011;33721;48.852;9.936;2023-07-29T01:48:23;5.07;;;2.80;;
47960;SDS011;33721;48.852;9.936;2023-07-29T01:50:49;4.05;;;2.50;;
47960;SDS011;33721;48.852;9.936;2023-07-29T01:53:15;5.25;;;2.75;;
47960;SDS011;33721;48.852;9.936;2023-07-29T01:55:41;3.13;;;2.30;;
47960;SDS011;33721;48.852;9.936;2023-07-29T01:58:09;4.88;;;2.28;;
47960;SDS011;33721;48.852;9.936;2023-07-29T02:00:35;5.22;;;2.30;;
47960;SDS011;33721;48.852;9.936;2023-07-29T02:03:00;3.38;;;2.13;;
47960;SDS011;33721;48.852;9.936;2023-07-29T02:05:26;2.85;;;2.00;;
47960;SDS011;33721;48.852;9.936;2023-07-29T02:07:52;3.08;;;2.22;;
47960;SDS011;33721;48.852;9.936;2023-07-29T02:10:17;64.07;;;3.85;;
47960;SDS011;33721;48.852;9.936;2023-07-29T02:12:43;30.27;;;2.78;;
47960;SDS011;33721;48.852;9.936;2023-07-29T02:15:09;16.38;;;3.30;;
47960;SDS011;33721;48.852;9.936;2023-07-29T02:17:34;3.72;;;2.50;;
47960;SDS011;33721;48.852;9.936;2023-07-29T02:20:01;10.23;;;2.42;;
47960;SDS011;33721;48.852;9.936;2023-07-29T02:22:26;32.67;;;2.40;;
47960;SDS011;33721;48.852;9.936;2023-07-29T02:24:52;3.78;;;1.90;;
47960;SDS011;33721;48.852;9.936;2023-07-29T02:27:17;4.13;;;2.78;;
47960;SDS011;33721;48.852;9.936;2023-07-29T02:29:43;3.38;;;2.22;;
47960;SDS011;33721;48.852;9.936;2023-07-29T02:32:09;4.95;;;2.65;;
47960;SDS011;33721;48.852;9.936;2023-07-29T02:34:34;4.35;;;2.58;;
47960;SDS011;33721;48.852;9.936;2023-07-29T02:37:00;3.58;;;2.35;;
47960;SDS011;33721;48.852;9.936;2023-07-29T02:39:25;4.25;;;2.50;;
47960;SDS011;33721;48.852;9.936;2023-07-29T02:41:51;4.45;;;2.97;;
47960;SDS011;33721;48.852;9.936;2023-07-29T02:44:17;3.65;;;2.45;;
47960;SDS011;33721;48.852;9.936;2023-07-29T02:46:44;4.50;;;2.83;;
47960;SDS011;33721;48.852;9.936;2023-07-29T02:49:10;4.00;;;2.53;;
47960;SDS011;33721;48.852;9.936;2023-07-29T02:51:35;5.53;;;2.67;;
47960;SDS011;33721;48.852;9.936;2023-07-29T02:54:01;4.72;;;2.35;;
47960;SDS011;33721;48.852;9.936;2023-07-29T02:56:27;4.55;;;2.72;;
47960;SDS011;33721;48.852;9.936;2023-07-29T02:58:52;9.07;;;2.70;;
47960;SDS011;33721;48.852;9.936;2023-07-29T03:01:18;4.13;;;2.40;;
47960;SDS011;33721;48.852;9.936;2023-07-29T03:03:44;4.28;;;2.10;;
47960;SDS011;33721;48.852;9.936;2023-07-29T03:06:10;8.00;;;2.95;;
47960;SDS011;33721;48.852;9.936;2023-07-29T03:08:38;4.50;;;2.70;;
47960;SDS011;33721;48.852;9.936;2023-07-29T03:11:07;5.30;;;2.60;;
47960;SDS011;33721;48.852;9.936;2023-07-29T03:13:35;4.20;;;2.38;;
47960;SDS011;33721;48.852;9.936;2023-07-29T03:16:19;4.43;;;2.22;;
47960;SDS011;33721;48.852;9.936;2023-07-29T03:18:44;5.95;;;2.67;;
47960;SDS011;33721;48.852;9.936;2023-07-29T03:21:10;8.88;;;2.85;;
47960;SDS011;33721;48.852;9.936;2023-07-29T03:23:36;4.25;;;2.80;;
47960;SDS011;33721;48.852;9.936;2023-07-29T03:26:03;4.80;;;2.50;;
47960;SDS011;33721;48.852;9.936;2023-07-29T03:28:35;3.22;;;2.47;;
47960;SDS011;33721;48.852;9.936;2023-07-29T03:31:05;5.30;;;2.33;;
47960;SDS011;33721;48.852;9.936;2023-07-29T03:33:31;4.95;;;2.25;;
47960;SDS011;33721;48.852;9.936;2023-07-29T03:35:57;5.63;;;2.30;;
47960;SDS011;33721;48.852;9.936;2023-07-29T03:38:22;4.47;;;2.00;;
47960;SDS011;33721;48.852;9.936;2023-07-29T03:40:48;7.18;;;2.50;;
47960;SDS011;33721;48.852;9.936;2023-07-29T03:43:14;3.75;;;1.98;;
47960;SDS011;33721;48.852;9.936;2023-07-29T03:45:40;3.20;;;2.17;;
47960;SDS011;33721;48.852;9.936;2023-07-29T03:48:05;5.78;;;2.88;;
47960;SDS011;33721;48.852;9.936;2023-07-29T03:50:33;8.18;;;2.60;;
47960;SDS011;33721;48.852;9.936;2023-07-29T03:53:00;7.57;;;2.17;;
47960;SDS011;33721;48.852;9.936;2023-07-29T03:55:26;4.93;;;2.25;;
47960;SDS011;33721;48.852;9.936;2023-07-29T03:57:52;5.25;;;2.60;;
47960;SDS011;33721;48.852;9.936;2023-07-29T04:00:18;5.97;;;2.60;;
47960;SDS011;33721;48.852;9.936;2023-07-29T04:02:43;3.47;;;2.50;;
47960;SDS011;33721;48.852;9.936;2023-07-29T04:05:10;9.68;;;2.20;;
47960;SDS011;33721;48.852;9.936;2023-07-29T04:07:36;8.18;;;2.47;;
47960;SDS011;33721;48.852;9.936;2023-07-29T04:10:02;5.13;;;2.13;;
47960;SDS011;33721;48.852;9.936;2023-07-29T04:12:28;3.25;;;2.00;;
47960;SDS011;33721;48.852;9.936;2023-07-29T04:14:54;4.38;;;2.47;;
47960;SDS011;33721;48.852;9.936;2023-07-29T04:17:20;4.57;;;2.50;;
47960;SDS011;33721;48.852;9.936;2023-07-29T04:19:45;3.95;;;2.80;;
47960;SDS011;33721;48.852;9.936;2023-07-29T04:22:11;5.68;;;2.45;;
47960;SDS011;33721;48.852;9.936;2023-07-29T04:24:37;4.72;;;2.55;;
47960;SDS011;33721;48.852;9.936;2023-07-29T04:27:03;4.47;;;2.58;;
47960;SDS011;33721;48.852;9.936;2023-07-29T04:29:29;7.82;;;2.65;;
47960;SDS011;33721;48.852;9.936;2023-07-29T04:31:54;11.07;;;2.45;;
47960;SDS011;33721;48.852;9.936;2023-07-29T04:34:20;4.82;;;2.45;;
47960;SDS011;33721;48.852;9.936;2023-07-29T04:36:46;5.95;;;2.83;;
47960;SDS011;33721;48.852;9.936;2023-07-29T04:39:12;7.07;;;2.53;;
47960;SDS011;33721;48.852;9.936;2023-07-29T04:41:38;4.95;;;2.50;;
47960;SDS011;33721;48.852;9.936;2023-07-29T04:44:04;4.40;;;2.67;;
47960;SDS011;33721;48.852;9.936;2023-07-29T04:46:30;7.32;;;2.30;;
47960;SDS011;33721;48.852;9.936;2023-07-29T04:48:55;5.78;;;2.67;;
47960;SDS011;33721;48.852;9.936;2023-07-29T04:51:21;3.70;;;2.13;;
47960;SDS011;33721;48.852;9.936;2023-07-29T04:53:47;3.45;;;2.10;;
47960;SDS011;33721;48.852;9.936;2023-07-29T04:56:13;6.32;;;2.60;;
47960;SDS011;33721;48.852;9.936;2023-07-29T04:58:39;4.22;;;2.40;;
47960;SDS011;33721;48.852;9.936;2023-07-29T05:01:06;3.60;;;2.40;;
47960;SDS011;33721;48.852;9.936;2023-07-29T05:03:32;3.95;;;2.47;;
47960;SDS011;33721;48.852;9.936;2023-07-29T05:05:58;3.78;;;2.17;;
47960;SDS011;33721;48.852;9.936;2023-07-29T05:08:27;4.55;;;2.30;;
47960;SDS011;33721;48.852;9.936;2023-07-29T05:10:53;7.82;;;2.40;;
47960;SDS011;33721;48.852;9.936;2023-07-29T05:13:19;3.67;;;1.90;;
47960;SDS011;33721;48.852;9.936;2023-07-29T05:15:46;4.25;;;2.13;;
47960;SDS011;33721;48.852;9.936;2023-07-29T05:18:12;4.25;;;2.35;;
47960;SDS011;33721;48.852;9.936;2023-07-29T05:20:39;2.50;;;1.88;;
47960;SDS011;33721;48.852;9.936;2023-07-29T05:23:04;3.05;;;2.10;;
47960;SDS011;33721;48.852;9.936;2023-07-29T05:25:30;4.82;;;2.28;;
47960;SDS011;33721;48.852;9.936;2023-07-29T05:27:55;6.88;;;2.53;;
47960;SDS011;33721;48.852;9.936;2023-07-29T05:30:22;3.10;;;2.42;;
47960;SDS011;33721;48.852;9.936;2023-07-29T05:32:48;6.13;;;2.33;;
47960;SDS011;33721;48.852;9.936;2023-07-29T05:35:13;4.95;;;2.50;;
47960;SDS011;33721;48.852;9.936;2023-07-29T05:37:40;3.80;;;2.22;;
47960;SDS011;33721;48.852;9.936;2023-07-29T05:40:06;6.22;;;2.50;;
47960;SDS011;33721;48.852;9.936;2023-07-29T05:42:32;5.22;;;3.15;;
47960;SDS011;33721;48.852;9.936;2023-07-29T05:44:58;5.28;;;2.80;;
47960;SDS011;33721;48.852;9.936;2023-07-29T05:47:24;30.48;;;3.17;;
47960;SDS011;33721;48.852;9.936;2023-07-29T05:49:50;5.10;;;2.55;;
47960;SDS011;33721;48.852;9.936;2023-07-29T05:52:15;7.22;;;3.08;;
47960;SDS011;33721;48.852;9.936;2023-07-29T05:54:41;4.30;;;2.67;;
47960;SDS011;33721;48.852;9.936;2023-07-29T05:57:11;4.88;;;2.15;;
47960;SDS011;33721;48.852;9.936;2023-07-29T05:59:37;8.25;;;2.90;;
47960;SDS011;33721;48.852;9.936;2023-07-29T06:02:03;7.43;;;3.00;;
47960;SDS011;33721;48.852;9.936;2023-07-29T06:04:29;4.18;;;2.70;;
47960;SDS011;33721;48.852;9.936;2023-07-29T06:06:55;4.90;;;2.58;;
47960;SDS011;33721;48.852;9.936;2023-07-29T06:09:21;4.90;;;3.00;;
47960;SDS011;33721;48.852;9.936;2023-07-29T06:11:47;5.03;;;2.95;;
47960;SDS011;33721;48.852;9.936;2023-07-29T06:14:12;5.40;;;2.90;;
47960;SDS011;33721;48.852;9.936;2023-07-29T06:16:38;3.92;;;2.72;;
47960;SDS011;33721;48.852;9.936;2023-07-29T06:19:04;5.13;;;3.00;;
47960;SDS011;33721;48.852;9.936;2023-07-29T06:21:29;4.53;;;2.60;;
47960;SDS011;33721;48.852;9.936;2023-07-29T06:23:55;5.70;;;2.70;;
47960;SDS011;33721;48.852;9.936;2023-07-29T06:26:21;5.00;;;2.72;;
47960;SDS011;33721;48.852;9.936;2023-07-29T06:28:47;4.15;;;2.40;;
47960;SDS011;33721;48.852;9.936;2023-07-29T06:31:12;4.18;;;2.20;;
47960;SDS011;33721;48.852;9.936;2023-07-29T06:33:38;4.25;;;2.47;;
47960;SDS011;33721;48.852;9.936;2023-07-29T06:36:04;4.20;;;2.50;;
47960;SDS011;33721;48.852;9.936;2023-07-29T06:38:29;6.03;;;2.70;;
47960;SDS011;33721;48.852;9.936;2023-07-29T06:40:55;5.18;;;2.67;;
47960;SDS011;33721;48.852;9.936;2023-07-29T06:43:21;5.88;;;2.65;;
47960;SDS011;33721;48.852;9.936;2023-07-29T06:45:47;6.47;;;2.58;;
47960;SDS011;33721;48.852;9.936;2023-07-29T06:48:12;8.98;;;2.72;;
47960;SDS011;33721;48.852;9.936;2023-07-29T06:50:38;9.63;;;2.80;;
47960;SDS011;33721;48.852;9.936;2023-07-29T06:53:03;6.35;;;2.58;;
47960;SDS011;33721;48.852;9.936;2023-07-29T06:55:29;6.80;;;2.15;;
47960;SDS011;33721;48.852;9.936;2023-07-29T06:57:55;4.78;;;2.13;;
47960;SDS011;33721;48.852;9.936;2023-07-29T07:00:20;5.70;;;2.80;;
47960;SDS011;33721;48.852;9.936;2023-07-29T07:02:46;8.25;;;2.50;;
47960;SDS011;33721;48.852;9.936;2023-07-29T07:05:12;4.70;;;2.90;;
47960;SDS011;33721;48.852;9.936;2023-07-29T07:07:37;5.95;;;2.97;;
47960;SDS011;33721;48.852;9.936;2023-07-29T07:10:03;9.02;;;2.80;;
47960;SDS011;33721;48.852;9.936;2023-07-29T07:12:29;4.35;;;2.42;;
47960;SDS011;33721;48.852;9.936;2023-07-29T07:14:55;4.32;;;2.40;;
47960;SDS011;33721;48.852;9.936;2023-07-29T07:17:20;3.70;;;2.40;;
47960;SDS011;33721;48.852;9.936;2023-07-29T07:19:46;5.13;;;2.28;;
47960;SDS011;33721;48.852;9.936;2023-07-29T07:22:12;5.68;;;1.98;;
47960;SDS011;33721;48.852;9.936;2023-07-29T07:24:37;8.88;;;2.53;;
47960;SDS011;33721;48.852;9.936;2023-07-29T07:27:03;5.43;;;1.80;;
47960;SDS011;33721;48.852;9.936;2023-07-29T07:29:29;2.95;;;2.00;;
47960;SDS011;33721;48.852;9.936;2023-07-29T07:31:55;4.97;;;2.22;;
47960;SDS011;33721;48.852;9.936;2023-07-29T07:34:21;6.55;;;2.25;;
47960;SDS011;33721;48.852;9.936;2023-07-29T07:36:48;3.40;;;2.05;;
47960;SDS011;33721;48.852;9.936;2023-07-29T07:39:14;4.72;;;2.10;;
47960;SDS011;33721;48.852;9.936;2023-07-29T07:41:40;4.32;;;2.08;;
47960;SDS011;33721;48.852;9.936;2023-07-29T07:44:06;7.25;;;2.97;;
47960;SDS011;33721;48.852;9.936;2023-07-29T07:46:32;5.75;;;2.38;;
47960;SDS011;33721;48.852;9.936;2023-07-29T07:48:58;8.02;;;2.42;;
47960;SDS011;33721;48.852;9.936;2023-07-29T07:51:23;16.08;;;3.03;;
47960;SDS011;33721;48.852;9.936;2023-07-29T07:53:49;14.23;;;2.42;;
47960;SDS011;33721;48.852;9.936;2023-07-29T07:56:14;7.47;;;2.17;;
47960;SDS011;33721;48.852;9.936;2023-07-29T07:58:40;5.93;;;1.92;;
47960;SDS011;33721;48.852;9.936;2023-07-29T08:01:06;7.68;;;2.70;;
47960;SDS011;33721;48.852;9.936;2023-07-29T08:03:33;10.25;;;2.67;;
47960;SDS011;33721;48.852;9.936;2023-07-29T08:06:00;5.20;;;3.00;;
47960;SDS011;33721;48.852;9.936;2023-07-29T08:08:26;8.65;;;2.78;;
47960;SDS011;33721;48.852;9.936;2023-07-29T08:10:53;7.15;;;2.50;;
47960;SDS011;33721;48.852;9.936;2023-07-29T08:13:20;5.50;;;2.88;;
47960;SDS011;33721;48.852;9.936;2023-07-29T08:15:47;6.72;;;2.63;;
47960;SDS011;33721;48.852;9.936;2023-07-29T08:18:13;4.25;;;2.03;;
47960;SDS011;33721;48.852;9.936;2023-07-29T08:20:38;4.25;;;1.85;;
47960;SDS011;33721;48.852;9.936;2023-07-29T08:23:04;3.00;;;1.30;;
47960;SDS011;33721;48.852;9.936;2023-07-29T08:25:30;6.30;;;2.42;;
47960;SDS011;33721;48.852;9.936;2023-07-29T08:27:56;6.90;;;1.20;;
47960;SDS011;33721;48.852;9.936;2023-07-29T08:30:22;2.83;;;1.42;;
47960;SDS011;33721;48.852;9.936;2023-07-29T08:32:47;2.70;;;1.52;;
47960;SDS011;33721;48.852;9.936;2023-07-29T08:35:13;3.45;;;1.30;;
47960;SDS011;33721;48.852;9.936;2023-07-29T08:37:39;1.63;;;1.17;;
47960;SDS011;33721;48.852;9.936;2023-07-29T08:40:05;2.10;;;1.13;;
47960;SDS011;33721;48.852;9.936;2023-07-29T08:42:31;2.30;;;1.10;;
47960;SDS011;33721;48.852;9.936;2023-07-29T08:45:05;2.50;;;1.20;;
47960;SDS011;33721;48.852;9.936;2023-07-29T08:47:33;2.22;;;1.13;;
47960;SDS011;33721;48.852;9.936;2023-07-29T08:49:58;1.80;;;1.20;;
47960;SDS011;33721;48.852;9.936;2023-07-29T08:52:26;3.22;;;1.02;;
47960;SDS011;33721;48.852;9.936;2023-07-29T08:54:52;1.85;;;1.02;;
47960;SDS011;33721;48.852;9.936;2023-07-29T08:57:18;5.18;;;1.10;;
47960;SDS011;33721;48.852;9.936;2023-07-29T08:59:45;2.58;;;1.40;;
47960;SDS011;33721;48.852;9.936;2023-07-29T09:02:11;1.90;;;1.10;;
47960;SDS011;33721;48.852;9.936;2023-07-29T09:04:37;2.10;;;1.40;;
47960;SDS011;33721;48.852;9.936;2023-07-29T09:07:03;3.83;;;1.50;;
47960;SDS011;33721;48.852;9.936;2023-07-29T09:09:30;2.78;;;1.60;;
47960;SDS011;33721;48.852;9.936;2023-07-29T09:11:56;3.25;;;2.03;;
47960;SDS011;33721;48.852;9.936;2023-07-29T09:14:23;3.70;;;1.48;;
47960;SDS011;33721;48.852;9.936;2023-07-29T09:16:49;4.43;;;1.38;;
47960;SDS011;33721;48.852;9.936;2023-07-29T09:19:15;3.33;;;1.65;;
47960;SDS011;33721;48.852;9.936;2023-07-29T09:21:41;5.63;;;1.73;;
47960;SDS011;33721;48.852;9.936;2023-07-29T09:24:08;2.60;;;1.50;;
47960;SDS011;33721;48.852;9.936;2023-07-29T09:26:35;4.70;;;1.42;;
47960;SDS011;33721;48.852;9.936;2023-07-29T09:29:00;3.00;;;1.67;;
47960;SDS011;33721;48.852;9.936;2023-07-29T09:31:27;2.83;;;1.52;;
47960;SDS011;33721;48.852;9.936;2023-07-29T09:33:59;4.40;;;2.00;;
47960;SDS011;33721;48.852;9.936;2023-07-29T09:36:28;2.33;;;1.50;;
47960;SDS011;33721;48.852;9.936;2023-07-29T09:38:57;2.95;;;1.90;;
47960;SDS011;33721;48.852;9.936;2023-07-29T09:41:23;2.50;;;1.67;;
47960;SDS011;33721;48.852;9.936;2023-07-29T09:43:56;5.70;;;1.77;;
47960;SDS011;33721;48.852;9.936;2023-07-29T09:46:23;3.95;;;1.65;;
47960;SDS011;33721;48.852;9.936;2023-07-29T09:48:53;3.50;;;1.92;;
47960;SDS011;33721;48.852;9.936;2023-07-29T09:51:22;3.83;;;1.77;;
47960;SDS011;33721;48.852;9.936;2023-07-29T09:53:49;4.10;;;2.00;;
47960;SDS011;33721;48.852;9.936;2023-07-29T09:56:16;5.22;;;2.20;;
47960;SDS011;33721;48.852;9.936;2023-07-29T09:58:45;4.90;;;2.40;;
47960;SDS011;33721;48.852;9.936;2023-07-29T10:01:11;3.50;;;1.75;;
47960;SDS011;33721;48.852;9.936;2023-07-29T10:03:37;4.93;;;2.05;;
47960;SDS011;33721;48.852;9.936;2023-07-29T10:06:06;4.70;;;2.20;;
47960;SDS011;33721;48.852;9.936;2023-07-29T10:08:32;5.47;;;2.10;;
47960;SDS011;33721;48.852;9.936;2023-07-29T10:11:03;3.22;;;2.28;;
47960;SDS011;33721;48.852;9.936;2023-07-29T10:13:31;6.22;;;2.30;;
47960;SDS011;33721;48.852;9.936;2023-07-29T10:15:58;4.53;;;2.00;;
47960;SDS011;33721;48.852;9.936;2023-07-29T10:18:24;4.80;;;1.90;;
47960;SDS011;33721;48.852;9.936;2023-07-29T10:20:50;3.05;;;1.83;;
47960;SDS011;33721;48.852;9.936;2023-07-29T10:23:17;3.70;;;2.05;;
47960;SDS011;33721;48.852;9.936;2023-07-29T10:25:46;3.88;;;2.13;;
47960;SDS011;33721;48.852;9.936;2023-07-29T10:28:15;2.95;;;1.90;;
47960;SDS011;33721;48.852;9.936;2023-07-29T10:30:45;3.30;;;2.03;;
47960;SDS011;33721;48.852;9.936;2023-07-29T10:33:11;4.55;;;2.70;;
47960;SDS011;33721;48.852;9.936;2023-07-29T10:35:37;3.58;;;2.03;;
47960;SDS011;33721;48.852;9.936;2023-07-29T10:38:03;6.85;;;1.85;;
47960;SDS011;33721;48.852;9.936;2023-07-29T10:40:43;3.80;;;1.92;;
47960;SDS011;33721;48.852;9.936;2023-07-29T10:43:18;3.95;;;2.03;;
47960;SDS011;33721;48.852;9.936;2023-07-29T10:45:48;7.75;;;2.10;;
47960;SDS011;33721;48.852;9.936;2023-07-29T10:48:59;3.42;;;1.95;;
47960;SDS011;33721;48.852;9.936;2023-07-29T10:54:10;8.85;;;2.83;;
47960;SDS011;33721;48.852;9.936;2023-07-29T10:56:37;3.08;;;1.92;;
47960;SDS011;33721;48.852;9.936;2023-07-29T11:01:41;5.65;;;2.20;;
47960;SDS011;33721;48.852;9.936;2023-07-29T11:15:04;6.72;;;0.77;;
47960;SDS011;33721;48.852;9.936;2023-07-29T11:20:19;2.20;;;0.70;;
47960;SDS011;33721;48.852;9.936;2023-07-29T11:22:47;8.55;;;1.77;;
47960;SDS011;33721;48.852;9.936;2023-07-29T11:25:14;1.75;;;0.60;;
47960;SDS011;33721;48.852;9.936;2023-07-29T11:27:41;2.17;;;0.75;;
47960;SDS011;33721;48.852;9.936;2023-07-29T11:30:07;1.45;;;0.60;;
47960;SDS011;33721;48.852;9.936;2023-07-29T11:37:30;0.93;;;0.60;;
47960;SDS011;33721;48.852;9.936;2023-07-29T11:39:56;1.15;;;0.57;;
47960;SDS011;33721;48.852;9.936;2023-07-29T11:42:21;2.25;;;0.90;;
47960;SDS011;33721;48.852;9.936;2023-07-29T11:44:47;3.58;;;0.90;;
47960;SDS011;33721;48.852;9.936;2023-07-29T11:47:13;1.73;;;1.08;;
47960;SDS011;33721;48.852;9.936;2023-07-29T11:49:39;1.75;;;0.80;;
47960;SDS011;33721;48.852;9.936;2023-07-29T11:52:06;1.63;;;0.73;;
47960;SDS011;33721;48.852;9.936;2023-07-29T11:54:38;1.20;;;0.82;;
47960;SDS011;33721;48.852;9.936;2023-07-29T11:57:07;5.45;;;1.10;;
47960;SDS011;33721;48.852;9.936;2023-07-29T11:59:34;1.50;;;1.00;;
47960;SDS011;33721;48.852;9.936;2023-07-29T12:02:01;4.30;;;1.23;;
47960;SDS011;33721;48.852;9.936;2023-07-29T12:04:30;9.83;;;1.10;;
47960;SDS011;33721;48.852;9.936;2023-07-29T12:06:56;1.63;;;1.17;;
47960;SDS011;33721;48.852;9.936;2023-07-29T12:09:22;1.50;;;1.10;;
47960;SDS011;33721;48.852;9.936;2023-07-29T12:11:48;2.15;;;1.40;;
47960;SDS011;33721;48.852;9.936;2023-07-29T12:14:16;6.15;;;1.40;;
47960;SDS011;33721;48.852;9.936;2023-07-29T12:16:42;1.80;;;1.17;;
47960;SDS011;33721;48.852;9.936;2023-07-29T12:19:08;5.47;;;2.03;;
47960;SDS011;33721;48.852;9.936;2023-07-29T12:21:36;2.55;;;1.45;;
47960;SDS011;33721;48.852;9.936;2023-07-29T12:24:02;1.98;;;1.20;;
47960;SDS011;33721;48.852;9.936;2023-07-29T12:26:29;1.75;;;1.40;;
47960;SDS011;33721;48.852;9.936;2023-07-29T12:28:54;3.50;;;1.40;;
47960;SDS011;33721;48.852;9.936;2023-07-29T12:31:21;3.42;;;1.70;;
47960;SDS011;33721;48.852;9.936;2023-07-29T12:33:56;4.50;;;1.52;;
47960;SDS011;33721;48.852;9.936;2023-07-29T12:36:22;2.47;;;1.38;;
47960;SDS011;33721;48.852;9.936;2023-07-29T12:38:52;2.88;;;1.85;;
47960;SDS011;33721;48.852;9.936;2023-07-29T12:41:17;3.58;;;1.30;;
47960;SDS011;33721;48.852;9.936;2023-07-29T12:43:43;1.98;;;1.58;;
47960;SDS011;33721;48.852;9.936;2023-07-29T12:46:09;1.73;;;1.50;;
47960;SDS011;33721;48.852;9.936;2023-07-29T12:48:34;2.80;;;1.70;;
47960;SDS011;33721;48.852;9.936;2023-07-29T12:51:00;3.13;;;1.80;;
47960;SDS011;33721;48.852;9.936;2023-07-29T12:53:26;3.30;;;1.45;;
47960;SDS011;33721;48.852;9.936;2023-07-29T12:55:51;3.05;;;1.60;;
47960;SDS011;33721;48.852;9.936;2023-07-29T12:58:17;1.40;;;1.20;;
47960;SDS011;33721;48.852;9.936;2023-07-29T13:00:43;4.63;;;2.00;;
47960;SDS011;33721;48.852;9.936;2023-07-29T13:03:08;2.00;;;1.40;;
47960;SDS011;33721;48.852;9.936;2023-07-29T13:05:34;4.25;;;1.55;;
47960;SDS011;33721;48.852;9.936;2023-07-29T13:07:59;2.63;;;1.50;;
47960;SDS011;33721;48.852;9.936;2023-07-29T13:10:25;4.55;;;1.58;;
47960;SDS011;33721;48.852;9.936;2023-07-29T13:12:51;2.38;;;1.48;;
47960;SDS011;33721;48.852;9.936;2023-07-29T13:15:17;4.30;;;1.67;;
47960;SDS011;33721;48.852;9.936;2023-07-29T13:17:42;2.28;;;1.67;;
47960;SDS011;33721;48.852;9.936;2023-07-29T13:20:08;3.83;;;2.13;;
47960;SDS011;33721;48.852;9.936;2023-07-29T13:22:34;3.22;;;2.10;;
47960;SDS011;33721;48.852;9.936;2023-07-29T13:25:00;7.35;;;1.90;;
47960;SDS011;33721;48.852;9.936;2023-07-29T13:27:26;3.28;;;1.85;;
47960;SDS011;33721;48.852;9.936;2023-07-29T13:29:53;3.30;;;2.15;;
47960;SDS011;33721;48.852;9.936;2023-07-29T13:32:19;2.15;;;1.90;;
47960;SDS011;33721;48.852;9.936;2023-07-29T13:34:44;3.00;;;2.40;;
47960;SDS011;33721;48.852;9.936;2023-07-29T13:37:10;3.42;;;2.28;;
47960;SDS011;33721;48.852;9.936;2023-07-29T13:39:36;3.70;;;2.25;;
47960;SDS011;33721;48.852;9.936;2023-07-29T13:42:01;2.65;;;1.88;;
47960;SDS011;33721;48.852;9.936;2023-07-29T13:44:27;2.25;;;1.55;;
47960;SDS011;33721;48.852;9.936;2023-07-29T13:46:52;2.70;;;1.80;;
47960;SDS011;33721;48.852;9.936;2023-07-29T13:49:18;3.22;;;1.90;;
47960;SDS011;33721;48.852;9.936;2023-07-29T13:51:44;3.25;;;2.10;;
47960;SDS011;33721;48.852;9.936;2023-07-29T13:54:10;2.78;;;1.70;;
47960;SDS011;33721;48.852;9.936;2023-07-29T13:56:36;2.40;;;1.83;;
47960;SDS011;33721;48.852;9.936;2023-07-29T13:59:01;4.25;;;2.28;;
47960;SDS011;33721;48.852;9.936;2023-07-29T14:01:27;3.30;;;1.90;;
47960;SDS011;33721;48.852;9.936;2023-07-29T14:03:53;2.65;;;1.98;;
47960;SDS011;33721;48.852;9.936;2023-07-29T14:06:18;2.67;;;1.80;;
47960;SDS011;33721;48.852;9.936;2023-07-29T14:08:44;2.78;;;1.92;;
47960;SDS011;33721;48.852;9.936;2023-07-29T14:11:09;2.17;;;1.60;;
47960;SDS011;33721;48.852;9.936;2023-07-29T14:13:35;2.65;;;2.05;;
47960;SDS011;33721;48.852;9.936;2023-07-29T14:16:01;5.43;;;2.20;;
47960;SDS011;33721;48.852;9.936;2023-07-29T14:18:27;3.72;;;2.10;;
47960;SDS011;33721;48.852;9.936;2023-07-29T14:20:53;5.15;;;2.00;;
47960;SDS011;33721;48.852;9.936;2023-07-29T14:23:19;3.22;;;2.15;;
47960;SDS011;33721;48.852;9.936;2023-07-29T14:25:44;3.80;;;2.30;;
47960;SDS011;33721;48.852;9.936;2023-07-29T14:28:10;3.65;;;2.58;;
47960;SDS011;33721;48.852;9.936;2023-07-29T14:30:38;3.92;;;2.22;;
47960;SDS011;33721;48.852;9.936;2023-07-29T14:33:03;3.55;;;2.30;;
47960;SDS011;33721;48.852;9.936;2023-07-29T14:35:29;4.18;;;2.30;;
47960;SDS011;33721;48.852;9.936;2023-07-29T14:37:55;2.25;;;1.80;;
47960;SDS011;33721;48.852;9.936;2023-07-29T14:40:21;5.38;;;2.20;;
47960;SDS011;33721;48.852;9.936;2023-07-29T14:42:46;3.80;;;2.35;;
47960;SDS011;33721;48.852;9.936;2023-07-29T14:45:12;5.65;;;2.17;;
47960;SDS011;33721;48.852;9.936;2023-07-29T14:47:38;2.83;;;2.00;;
47960;SDS011;33721;48.852;9.936;2023-07-29T14:50:03;3.65;;;1.90;;
47960;SDS011;33721;48.852;9.936;2023-07-29T14:52:29;3.03;;;2.10;;
47960;SDS011;33721;48.852;9.936;2023-07-29T14:54:55;3.50;;;2.30;;
47960;SDS011;33721;48.852;9.936;2023-07-29T14:57:20;3.75;;;2.10;;
47960;SDS011;33721;48.852;9.936;2023-07-29T14:59:46;2.97;;;2.30;;
47960;SDS011;33721;48.852;9.936;2023-07-29T15:02:12;3.95;;;2.53;;
47960;SDS011;33721;48.852;9.936;2023-07-29T15:04:37;4.35;;;2.30;;
47960;SDS011;33721;48.852;9.936;2023-07-29T15:07:03;4.05;;;2.40;;
47960;SDS011;33721;48.852;9.936;2023-07-29T15:09:29;3.10;;;2.15;;
47960;SDS011;33721;48.852;9.936;2023-07-29T15:11:54;4.10;;;2.00;;
47960;SDS011;33721;48.852;9.936;2023-07-29T15:14:20;3.63;;;2.30;;
47960;SDS011;33721;48.852;9.936;2023-07-29T15:16:46;2.80;;;2.13;;